sensor_id;sensor_type;location;lat;lon;timestamp;P1;durP1;ratioP1;P2;durP2;ratioP2
83247;SDS011;73465;51.038;7.052;2024-01-30T00:00:34;16.83;;;8.93;;
83247;SDS011;73465;51.038;7.052;2024-01-30T00:02:59;18.77;;;8.75;;
83247;SDS011;73465;51.038;7.052;2024-01-30T00:05:25;16.90;;;8.35;;
83247;SDS011;73465;51.038;7.052;2024-01-30T00:07:50;17.13;;;8.43;;
83247;SDS011;73465;51.038;7.052;2024-01-30T00:10:16;18.13;;;8.80;;
83247;SDS011;73465;51.038;7.052;2024-01-30T00:12:41;13.68;;;8.85;;
83247;SDS011;73465;51.038;7.052;2024-01-30T00:15:06;16.15;;;9.15;;
83247;SDS011;73465;51.038;7.052;2024-01-30T00:17:34;13.75;;;7.25;;
83247;SDS011;73465;51.038;7.052;2024-01-30T00:20:00;14.13;;;8.13;;
83247;SDS011;73465;51.038;7.052;2024-01-30T00:22:26;19.15;;;8.23;;
83247;SDS011;73465;51.038;7.052;2024-01-30T00:24:51;15.13;;;7.22;;
83247;SDS011;73465;51.038;7.052;2024-01-30T00:27:16;14.85;;;7.93;;
83247;SDS011;73465;51.038;7.052;2024-01-30T00:29:42;15.13;;;7.97;;
83247;SDS011;73465;51.038;7.052;2024-01-30T00:32:07;19.08;;;8.05;;
83247;SDS011;73465;51.038;7.052;2024-01-30T00:34:32;12.27;;;7.53;;
83247;SDS011;73465;51.038;7.052;2024-01-30T00:36:57;16.35;;;8.45;;
83247;SDS011;73465;51.038;7.052;2024-01-30T00:39:23;17.25;;;7.90;;
83247;SDS011;73465;51.038;7.052;2024-01-30T00:41:48;15.82;;;8.70;;
83247;SDS011;73465;51.038;7.052;2024-01-30T00:44:13;16.27;;;7.75;;
83247;SDS011;73465;51.038;7.052;2024-01-30T00:46:39;16.55;;;8.38;;
83247;SDS011;73465;51.038;7.052;2024-01-30T00:49:04;14.60;;;8.82;;
83247;SDS011;73465;51.038;7.052;2024-01-30T00:51:29;15.50;;;8.80;;
83247;SDS011;73465;51.038;7.052;2024-01-30T00:53:55;12.63;;;7.70;;
83247;SDS011;73465;51.038;7.052;2024-01-30T00:56:20;15.35;;;7.75;;
83247;SDS011;73465;51.038;7.052;2024-01-30T00:58:46;14.55;;;7.90;;
83247;SDS011;73465;51.038;7.052;2024-01-30T01:01:11;17.08;;;8.32;;
83247;SDS011;73465;51.038;7.052;2024-01-30T01:03:37;15.32;;;8.57;;
83247;SDS011;73465;51.038;7.052;2024-01-30T01:06:02;14.40;;;8.60;;
83247;SDS011;73465;51.038;7.052;2024-01-30T01:08:28;13.32;;;7.80;;
83247;SDS011;73465;51.038;7.052;2024-01-30T01:10:53;15.48;;;8.52;;
83247;SDS011;73465;51.038;7.052;2024-01-30T01:13:18;12.68;;;8.80;;
83247;SDS011;73465;51.038;7.052;2024-01-30T01:15:44;12.68;;;8.23;;
83247;SDS011;73465;51.038;7.052;2024-01-30T01:18:09;15.00;;;8.30;;
83247;SDS011;73465;51.038;7.052;2024-01-30T01:20:35;17.05;;;8.38;;
83247;SDS011;73465;51.038;7.052;2024-01-30T01:23:01;19.60;;;9.77;;
83247;SDS011;73465;51.038;7.052;2024-01-30T01:25:26;17.80;;;9.02;;
83247;SDS011;73465;51.038;7.052;2024-01-30T01:27:51;13.63;;;7.95;;
83247;SDS011;73465;51.038;7.052;2024-01-30T01:30:17;15.40;;;8.85;;
83247;SDS011;73465;51.038;7.052;2024-01-30T01:32:47;17.58;;;8.70;;
83247;SDS011;73465;51.038;7.052;2024-01-30T01:35:20;13.43;;;7.82;;
83247;SDS011;73465;51.038;7.052;2024-01-30T01:37:52;16.75;;;8.27;;
83247;SDS011;73465;51.038;7.052;2024-01-30T01:40:22;17.92;;;8.32;;
83247;SDS011;73465;51.038;7.052;2024-01-30T01:42:49;19.23;;;8.13;;
83247;SDS011;73465;51.038;7.052;2024-01-30T01:45:16;15.40;;;8.48;;
83247;SDS011;73465;51.038;7.052;2024-01-30T01:47:41;14.13;;;8.20;;
83247;SDS011;73465;51.038;7.052;2024-01-30T01:50:07;14.57;;;8.65;;
83247;SDS011;73465;51.038;7.052;2024-01-30T01:52:33;15.93;;;8.45;;
83247;SDS011;73465;51.038;7.052;2024-01-30T01:54:59;15.48;;;8.00;;
83247;SDS011;73465;51.038;7.052;2024-01-30T01:57:25;17.42;;;8.50;;
83247;SDS011;73465;51.038;7.052;2024-01-30T01:59:51;15.38;;;8.00;;
83247;SDS011;73465;51.038;7.052;2024-01-30T02:02:17;18.65;;;8.77;;
83247;SDS011;73465;51.038;7.052;2024-01-30T02:04:44;15.65;;;7.78;;
83247;SDS011;73465;51.038;7.052;2024-01-30T02:07:10;17.02;;;8.82;;
83247;SDS011;73465;51.038;7.052;2024-01-30T02:09:36;14.40;;;8.35;;
83247;SDS011;73465;51.038;7.052;2024-01-30T02:12:01;14.65;;;8.50;;
83247;SDS011;73465;51.038;7.052;2024-01-30T02:14:27;15.18;;;7.45;;
83247;SDS011;73465;51.038;7.052;2024-01-30T02:16:52;16.35;;;8.10;;
83247;SDS011;73465;51.038;7.052;2024-01-30T02:19:18;21.70;;;8.30;;
83247;SDS011;73465;51.038;7.052;2024-01-30T02:21:44;16.45;;;7.95;;
83247;SDS011;73465;51.038;7.052;2024-01-30T02:24:11;19.88;;;8.18;;
83247;SDS011;73465;51.038;7.052;2024-01-30T02:26:36;18.33;;;8.18;;
83247;SDS011;73465;51.038;7.052;2024-01-30T02:29:01;16.02;;;7.90;;
83247;SDS011;73465;51.038;7.052;2024-01-30T02:31:27;11.55;;;8.07;;
83247;SDS011;73465;51.038;7.052;2024-01-30T02:33:53;15.40;;;7.88;;
83247;SDS011;73465;51.038;7.052;2024-01-30T02:36:18;12.27;;;7.38;;
83247;SDS011;73465;51.038;7.052;2024-01-30T02:38:44;13.05;;;7.80;;
83247;SDS011;73465;51.038;7.052;2024-01-30T02:41:11;15.30;;;7.72;;
83247;SDS011;73465;51.038;7.052;2024-01-30T02:43:37;15.73;;;8.20;;
83247;SDS011;73465;51.038;7.052;2024-01-30T02:46:02;17.58;;;8.90;;
83247;SDS011;73465;51.038;7.052;2024-01-30T02:48:27;15.05;;;8.93;;
83247;SDS011;73465;51.038;7.052;2024-01-30T02:50:54;14.82;;;8.38;;
83247;SDS011;73465;51.038;7.052;2024-01-30T02:53:19;13.80;;;8.00;;
83247;SDS011;73465;51.038;7.052;2024-01-30T02:55:46;13.70;;;7.65;;
83247;SDS011;73465;51.038;7.052;2024-01-30T02:58:11;12.90;;;8.20;;
83247;SDS011;73465;51.038;7.052;2024-01-30T03:00:36;14.32;;;8.30;;
83247;SDS011;73465;51.038;7.052;2024-01-30T03:03:02;13.40;;;7.85;;
83247;SDS011;73465;51.038;7.052;2024-01-30T03:05:27;17.15;;;8.25;;
83247;SDS011;73465;51.038;7.052;2024-01-30T03:07:52;17.15;;;8.20;;
83247;SDS011;73465;51.038;7.052;2024-01-30T03:10:19;13.23;;;8.05;;
83247;SDS011;73465;51.038;7.052;2024-01-30T03:12:44;13.05;;;8.00;;
83247;SDS011;73465;51.038;7.052;2024-01-30T03:15:10;14.50;;;8.35;;
83247;SDS011;73465;51.038;7.052;2024-01-30T03:17:35;15.48;;;8.05;;
83247;SDS011;73465;51.038;7.052;2024-01-30T03:20:02;14.23;;;8.18;;
83247;SDS011;73465;51.038;7.052;2024-01-30T03:22:29;13.05;;;8.23;;
83247;SDS011;73465;51.038;7.052;2024-01-30T03:24:54;13.13;;;8.10;;
83247;SDS011;73465;51.038;7.052;2024-01-30T03:27:19;17.48;;;9.65;;
83247;SDS011;73465;51.038;7.052;2024-01-30T03:29:45;12.73;;;7.85;;
83247;SDS011;73465;51.038;7.052;2024-01-30T03:32:10;17.63;;;8.60;;
83247;SDS011;73465;51.038;7.052;2024-01-30T03:34:35;16.45;;;8.20;;
83247;SDS011;73465;51.038;7.052;2024-01-30T03:37:01;19.45;;;8.15;;
83247;SDS011;73465;51.038;7.052;2024-01-30T03:39:26;17.38;;;7.72;;
83247;SDS011;73465;51.038;7.052;2024-01-30T03:41:51;19.98;;;8.98;;
83247;SDS011;73465;51.038;7.052;2024-01-30T03:44:17;14.98;;;8.10;;
83247;SDS011;73465;51.038;7.052;2024-01-30T03:46:42;14.80;;;8.45;;
83247;SDS011;73465;51.038;7.052;2024-01-30T03:49:09;11.88;;;7.03;;
83247;SDS011;73465;51.038;7.052;2024-01-30T03:51:34;13.15;;;7.88;;
83247;SDS011;73465;51.038;7.052;2024-01-30T03:54:01;13.90;;;8.13;;
83247;SDS011;73465;51.038;7.052;2024-01-30T03:56:26;15.73;;;7.47;;
83247;SDS011;73465;51.038;7.052;2024-01-30T03:58:52;15.43;;;7.03;;
83247;SDS011;73465;51.038;7.052;2024-01-30T04:01:17;15.30;;;7.75;;
83247;SDS011;73465;51.038;7.052;2024-01-30T04:03:42;12.80;;;7.57;;
83247;SDS011;73465;51.038;7.052;2024-01-30T04:06:09;13.85;;;7.78;;
83247;SDS011;73465;51.038;7.052;2024-01-30T04:08:34;12.23;;;7.53;;
83247;SDS011;73465;51.038;7.052;2024-01-30T04:11:04;11.95;;;7.18;;
83247;SDS011;73465;51.038;7.052;2024-01-30T04:13:30;14.30;;;7.57;;
83247;SDS011;73465;51.038;7.052;2024-01-30T04:15:56;14.65;;;8.20;;
83247;SDS011;73465;51.038;7.052;2024-01-30T04:18:23;12.30;;;7.78;;
83247;SDS011;73465;51.038;7.052;2024-01-30T04:20:49;12.18;;;7.85;;
83247;SDS011;73465;51.038;7.052;2024-01-30T04:23:14;14.55;;;7.30;;
83247;SDS011;73465;51.038;7.052;2024-01-30T04:25:39;15.98;;;7.13;;
83247;SDS011;73465;51.038;7.052;2024-01-30T04:28:05;15.48;;;7.20;;
83247;SDS011;73465;51.038;7.052;2024-01-30T04:30:30;12.50;;;7.30;;
83247;SDS011;73465;51.038;7.052;2024-01-30T04:32:55;16.10;;;7.55;;
83247;SDS011;73465;51.038;7.052;2024-01-30T04:35:21;16.90;;;7.15;;
83247;SDS011;73465;51.038;7.052;2024-01-30T04:37:49;12.70;;;7.70;;
83247;SDS011;73465;51.038;7.052;2024-01-30T04:40:17;11.93;;;7.82;;
83247;SDS011;73465;51.038;7.052;2024-01-30T04:42:42;13.38;;;7.13;;
83247;SDS011;73465;51.038;7.052;2024-01-30T04:45:07;13.98;;;7.65;;
83247;SDS011;73465;51.038;7.052;2024-01-30T04:47:33;17.65;;;8.40;;
83247;SDS011;73465;51.038;7.052;2024-01-30T04:49:58;11.50;;;7.32;;
83247;SDS011;73465;51.038;7.052;2024-01-30T04:52:24;16.08;;;8.30;;
83247;SDS011;73465;51.038;7.052;2024-01-30T04:54:49;17.95;;;8.38;;
83247;SDS011;73465;51.038;7.052;2024-01-30T04:57:14;11.85;;;8.27;;
83247;SDS011;73465;51.038;7.052;2024-01-30T04:59:41;10.10;;;7.15;;
83247;SDS011;73465;51.038;7.052;2024-01-30T05:02:06;24.08;;;8.18;;
83247;SDS011;73465;51.038;7.052;2024-01-30T05:04:32;15.50;;;8.05;;
83247;SDS011;73465;51.038;7.052;2024-01-30T05:06:57;13.25;;;7.90;;
83247;SDS011;73465;51.038;7.052;2024-01-30T05:09:22;13.85;;;6.97;;
83247;SDS011;73465;51.038;7.052;2024-01-30T05:11:48;12.38;;;8.13;;
83247;SDS011;73465;51.038;7.052;2024-01-30T05:14:13;18.00;;;7.63;;
83247;SDS011;73465;51.038;7.052;2024-01-30T05:16:40;13.25;;;7.63;;
83247;SDS011;73465;51.038;7.052;2024-01-30T05:19:06;12.48;;;7.30;;
83247;SDS011;73465;51.038;7.052;2024-01-30T05:21:31;15.07;;;7.70;;
83247;SDS011;73465;51.038;7.052;2024-01-30T05:23:56;15.80;;;6.93;;
83247;SDS011;73465;51.038;7.052;2024-01-30T05:26:21;14.07;;;7.15;;
83247;SDS011;73465;51.038;7.052;2024-01-30T05:28:48;15.25;;;8.32;;
83247;SDS011;73465;51.038;7.052;2024-01-30T05:31:13;15.48;;;7.75;;
83247;SDS011;73465;51.038;7.052;2024-01-30T05:33:40;10.30;;;7.13;;
83247;SDS011;73465;51.038;7.052;2024-01-30T05:36:05;11.68;;;7.22;;
83247;SDS011;73465;51.038;7.052;2024-01-30T05:38:31;13.90;;;7.53;;
83247;SDS011;73465;51.038;7.052;2024-01-30T05:40:57;12.52;;;6.50;;
83247;SDS011;73465;51.038;7.052;2024-01-30T05:43:25;11.45;;;6.75;;
83247;SDS011;73465;51.038;7.052;2024-01-30T05:45:51;11.73;;;7.20;;
83247;SDS011;73465;51.038;7.052;2024-01-30T05:48:17;11.40;;;7.18;;
83247;SDS011;73465;51.038;7.052;2024-01-30T05:50:42;17.55;;;7.55;;
83247;SDS011;73465;51.038;7.052;2024-01-30T05:53:08;10.63;;;6.75;;
83247;SDS011;73465;51.038;7.052;2024-01-30T05:55:33;11.05;;;6.95;;
83247;SDS011;73465;51.038;7.052;2024-01-30T05:57:58;14.82;;;7.50;;
83247;SDS011;73465;51.038;7.052;2024-01-30T06:00:24;12.95;;;7.40;;
83247;SDS011;73465;51.038;7.052;2024-01-30T06:02:49;13.88;;;7.32;;
83247;SDS011;73465;51.038;7.052;2024-01-30T06:05:14;13.20;;;7.60;;
83247;SDS011;73465;51.038;7.052;2024-01-30T06:07:40;14.57;;;6.93;;
83247;SDS011;73465;51.038;7.052;2024-01-30T06:10:05;13.52;;;7.43;;
83247;SDS011;73465;51.038;7.052;2024-01-30T06:12:32;13.52;;;6.75;;
83247;SDS011;73465;51.038;7.052;2024-01-30T06:14:57;14.80;;;7.15;;
83247;SDS011;73465;51.038;7.052;2024-01-30T06:17:23;15.77;;;7.70;;
83247;SDS011;73465;51.038;7.052;2024-01-30T06:19:48;13.82;;;7.05;;
83247;SDS011;73465;51.038;7.052;2024-01-30T06:22:14;15.10;;;7.57;;
83247;SDS011;73465;51.038;7.052;2024-01-30T06:24:40;12.00;;;8.07;;
83247;SDS011;73465;51.038;7.052;2024-01-30T06:27:06;17.48;;;7.90;;
83247;SDS011;73465;51.038;7.052;2024-01-30T06:29:31;14.13;;;7.78;;
83247;SDS011;73465;51.038;7.052;2024-01-30T06:31:56;13.15;;;7.47;;
83247;SDS011;73465;51.038;7.052;2024-01-30T06:34:22;13.80;;;7.63;;
83247;SDS011;73465;51.038;7.052;2024-01-30T06:36:47;17.65;;;9.25;;
83247;SDS011;73465;51.038;7.052;2024-01-30T06:39:12;16.45;;;7.95;;
83247;SDS011;73465;51.038;7.052;2024-01-30T06:41:38;17.85;;;7.82;;
83247;SDS011;73465;51.038;7.052;2024-01-30T06:44:03;15.95;;;9.38;;
83247;SDS011;73465;51.038;7.052;2024-01-30T06:46:31;14.52;;;7.72;;
83247;SDS011;73465;51.038;7.052;2024-01-30T06:48:57;17.02;;;8.43;;
83247;SDS011;73465;51.038;7.052;2024-01-30T06:51:22;13.75;;;7.65;;
83247;SDS011;73465;51.038;7.052;2024-01-30T06:53:48;13.45;;;7.88;;
83247;SDS011;73465;51.038;7.052;2024-01-30T06:56:13;14.90;;;8.27;;
83247;SDS011;73465;51.038;7.052;2024-01-30T06:58:39;12.38;;;7.28;;
83247;SDS011;73465;51.038;7.052;2024-01-30T07:01:04;13.85;;;7.03;;
83247;SDS011;73465;51.038;7.052;2024-01-30T07:03:32;14.73;;;7.20;;
83247;SDS011;73465;51.038;7.052;2024-01-30T07:05:57;10.45;;;6.82;;
83247;SDS011;73465;51.038;7.052;2024-01-30T07:08:22;12.82;;;7.50;;
83247;SDS011;73465;51.038;7.052;2024-01-30T07:10:48;14.20;;;7.55;;
83247;SDS011;73465;51.038;7.052;2024-01-30T07:13:13;12.13;;;7.43;;
83247;SDS011;73465;51.038;7.052;2024-01-30T07:15:41;11.07;;;6.97;;
83247;SDS011;73465;51.038;7.052;2024-01-30T07:18:07;12.32;;;6.60;;
83247;SDS011;73465;51.038;7.052;2024-01-30T07:20:32;13.25;;;6.30;;
83247;SDS011;73465;51.038;7.052;2024-01-30T07:22:58;11.98;;;7.18;;
83247;SDS011;73465;51.038;7.052;2024-01-30T07:25:23;16.55;;;7.60;;
83247;SDS011;73465;51.038;7.052;2024-01-30T07:27:52;14.27;;;7.10;;
83247;SDS011;73465;51.038;7.052;2024-01-30T07:30:18;14.63;;;7.30;;
83247;SDS011;73465;51.038;7.052;2024-01-30T07:32:44;12.35;;;6.97;;
83247;SDS011;73465;51.038;7.052;2024-01-30T07:35:09;11.52;;;7.53;;
83247;SDS011;73465;51.038;7.052;2024-01-30T07:37:34;12.50;;;7.18;;
83247;SDS011;73465;51.038;7.052;2024-01-30T07:40:00;15.43;;;6.85;;
83247;SDS011;73465;51.038;7.052;2024-01-30T07:42:26;10.57;;;6.18;;
83247;SDS011;73465;51.038;7.052;2024-01-30T07:44:51;14.07;;;6.88;;
83247;SDS011;73465;51.038;7.052;2024-01-30T07:47:17;13.38;;;7.28;;
83247;SDS011;73465;51.038;7.052;2024-01-30T07:49:42;17.92;;;7.60;;
83247;SDS011;73465;51.038;7.052;2024-01-30T07:52:07;11.40;;;6.05;;
83247;SDS011;73465;51.038;7.052;2024-01-30T07:54:33;13.63;;;6.85;;
83247;SDS011;73465;51.038;7.052;2024-01-30T07:57:00;12.93;;;6.78;;
83247;SDS011;73465;51.038;7.052;2024-01-30T07:59:25;13.85;;;7.10;;
83247;SDS011;73465;51.038;7.052;2024-01-30T08:01:51;12.15;;;7.25;;
83247;SDS011;73465;51.038;7.052;2024-01-30T08:04:16;13.63;;;6.97;;
83247;SDS011;73465;51.038;7.052;2024-01-30T08:06:42;11.88;;;6.55;;
83247;SDS011;73465;51.038;7.052;2024-01-30T08:09:07;13.02;;;7.40;;
83247;SDS011;73465;51.038;7.052;2024-01-30T08:11:33;13.75;;;6.50;;
83247;SDS011;73465;51.038;7.052;2024-01-30T08:13:58;14.95;;;7.63;;
83247;SDS011;73465;51.038;7.052;2024-01-30T08:16:23;13.65;;;7.05;;
83247;SDS011;73465;51.038;7.052;2024-01-30T08:18:49;10.00;;;6.55;;
83247;SDS011;73465;51.038;7.052;2024-01-30T08:21:14;10.05;;;6.57;;
83247;SDS011;73465;51.038;7.052;2024-01-30T08:23:39;10.80;;;6.53;;
83247;SDS011;73465;51.038;7.052;2024-01-30T08:26:05;13.15;;;6.85;;
83247;SDS011;73465;51.038;7.052;2024-01-30T08:28:30;12.98;;;6.95;;
83247;SDS011;73465;51.038;7.052;2024-01-30T08:30:56;13.45;;;6.65;;
83247;SDS011;73465;51.038;7.052;2024-01-30T08:33:21;10.60;;;6.60;;
83247;SDS011;73465;51.038;7.052;2024-01-30T08:35:46;11.63;;;6.07;;
83247;SDS011;73465;51.038;7.052;2024-01-30T08:38:12;11.27;;;6.43;;
83247;SDS011;73465;51.038;7.052;2024-01-30T08:40:37;11.75;;;6.57;;
83247;SDS011;73465;51.038;7.052;2024-01-30T08:43:03;12.35;;;6.40;;
83247;SDS011;73465;51.038;7.052;2024-01-30T08:45:29;11.32;;;6.45;;
83247;SDS011;73465;51.038;7.052;2024-01-30T08:47:55;10.32;;;5.75;;
83247;SDS011;73465;51.038;7.052;2024-01-30T08:50:21;11.93;;;6.10;;
83247;SDS011;73465;51.038;7.052;2024-01-30T08:52:46;11.20;;;5.90;;
83247;SDS011;73465;51.038;7.052;2024-01-30T08:55:11;12.05;;;6.97;;
83247;SDS011;73465;51.038;7.052;2024-01-30T08:57:37;11.63;;;5.90;;
83247;SDS011;73465;51.038;7.052;2024-01-30T09:00:02;15.10;;;6.10;;
83247;SDS011;73465;51.038;7.052;2024-01-30T09:02:31;11.57;;;5.82;;
83247;SDS011;73465;51.038;7.052;2024-01-30T09:04:57;10.73;;;5.38;;
83247;SDS011;73465;51.038;7.052;2024-01-30T09:07:22;10.45;;;5.68;;
83247;SDS011;73465;51.038;7.052;2024-01-30T09:09:47;8.13;;;4.97;;
83247;SDS011;73465;51.038;7.052;2024-01-30T09:12:14;10.45;;;5.40;;
83247;SDS011;73465;51.038;7.052;2024-01-30T09:14:39;10.25;;;5.45;;
83247;SDS011;73465;51.038;7.052;2024-01-30T09:17:06;13.25;;;5.13;;
83247;SDS011;73465;51.038;7.052;2024-01-30T09:19:31;13.00;;;5.13;;
83247;SDS011;73465;51.038;7.052;2024-01-30T09:21:56;13.90;;;5.40;;
83247;SDS011;73465;51.038;7.052;2024-01-30T09:24:22;11.20;;;5.45;;
83247;SDS011;73465;51.038;7.052;2024-01-30T09:26:47;11.23;;;6.40;;
83247;SDS011;73465;51.038;7.052;2024-01-30T09:29:12;7.30;;;4.72;;
83247;SDS011;73465;51.038;7.052;2024-01-30T09:31:38;9.20;;;5.10;;
83247;SDS011;73465;51.038;7.052;2024-01-30T09:34:03;9.73;;;5.25;;
83247;SDS011;73465;51.038;7.052;2024-01-30T09:36:28;8.85;;;5.18;;
83247;SDS011;73465;51.038;7.052;2024-01-30T09:38:54;10.25;;;4.78;;
83247;SDS011;73465;51.038;7.052;2024-01-30T09:41:19;10.38;;;4.53;;
83247;SDS011;73465;51.038;7.052;2024-01-30T09:43:48;9.65;;;4.70;;
83247;SDS011;73465;51.038;7.052;2024-01-30T09:46:16;9.63;;;4.97;;
83247;SDS011;73465;51.038;7.052;2024-01-30T09:48:43;14.35;;;5.07;;
83247;SDS011;73465;51.038;7.052;2024-01-30T09:51:16;11.07;;;4.70;;
83247;SDS011;73465;51.038;7.052;2024-01-30T09:53:42;11.02;;;5.30;;
83247;SDS011;73465;51.038;7.052;2024-01-30T09:56:12;9.15;;;4.80;;
83247;SDS011;73465;51.038;7.052;2024-01-30T09:58:38;7.93;;;5.10;;
83247;SDS011;73465;51.038;7.052;2024-01-30T10:01:04;10.00;;;5.40;;
83247;SDS011;73465;51.038;7.052;2024-01-30T10:03:30;6.55;;;4.07;;
83247;SDS011;73465;51.038;7.052;2024-01-30T10:05:55;7.90;;;4.10;;
83247;SDS011;73465;51.038;7.052;2024-01-30T10:08:21;9.82;;;4.68;;
83247;SDS011;73465;51.038;7.052;2024-01-30T10:10:47;12.25;;;4.55;;
83247;SDS011;73465;51.038;7.052;2024-01-30T10:13:13;10.13;;;4.45;;
83247;SDS011;73465;51.038;7.052;2024-01-30T10:15:38;9.50;;;4.40;;
83247;SDS011;73465;51.038;7.052;2024-01-30T10:18:07;6.95;;;3.72;;
83247;SDS011;73465;51.038;7.052;2024-01-30T10:20:35;9.82;;;3.90;;
83247;SDS011;73465;51.038;7.052;2024-01-30T10:23:01;7.93;;;3.88;;
83247;SDS011;73465;51.038;7.052;2024-01-30T10:25:26;7.30;;;3.55;;
83247;SDS011;73465;51.038;7.052;2024-01-30T10:27:52;9.15;;;4.50;;
83247;SDS011;73465;51.038;7.052;2024-01-30T10:30:20;6.82;;;3.42;;
83247;SDS011;73465;51.038;7.052;2024-01-30T10:32:45;9.23;;;4.13;;
83247;SDS011;73465;51.038;7.052;2024-01-30T10:35:11;11.15;;;5.00;;
83247;SDS011;73465;51.038;7.052;2024-01-30T10:37:36;11.00;;;4.13;;
83247;SDS011;73465;51.038;7.052;2024-01-30T10:40:02;5.97;;;4.05;;
83247;SDS011;73465;51.038;7.052;2024-01-30T10:42:31;10.70;;;3.60;;
83247;SDS011;73465;51.038;7.052;2024-01-30T10:45:07;8.98;;;4.30;;
83247;SDS011;73465;51.038;7.052;2024-01-30T10:47:44;9.20;;;4.70;;
83247;SDS011;73465;51.038;7.052;2024-01-30T10:50:15;11.45;;;4.30;;
83247;SDS011;73465;51.038;7.052;2024-01-30T10:52:41;10.20;;;4.50;;
83247;SDS011;73465;51.038;7.052;2024-01-30T10:55:08;6.75;;;4.03;;
83247;SDS011;73465;51.038;7.052;2024-01-30T10:57:35;8.57;;;4.93;;
83247;SDS011;73465;51.038;7.052;2024-01-30T11:00:04;8.25;;;4.55;;
83247;SDS011;73465;51.038;7.052;2024-01-30T11:02:39;8.07;;;4.43;;
83247;SDS011;73465;51.038;7.052;2024-01-30T11:05:06;14.23;;;4.10;;
83247;SDS011;73465;51.038;7.052;2024-01-30T11:07:31;9.32;;;3.60;;
83247;SDS011;73465;51.038;7.052;2024-01-30T11:12:23;8.43;;;4.40;;
83247;SDS011;73465;51.038;7.052;2024-01-30T11:14:49;10.43;;;3.78;;
83247;SDS011;73465;51.038;7.052;2024-01-30T11:17:15;8.13;;;4.18;;
83247;SDS011;73465;51.038;7.052;2024-01-30T11:19:41;10.10;;;4.38;;
83247;SDS011;73465;51.038;7.052;2024-01-30T11:22:07;8.40;;;4.10;;
83247;SDS011;73465;51.038;7.052;2024-01-30T11:24:38;9.43;;;4.28;;
83247;SDS011;73465;51.038;7.052;2024-01-30T11:27:08;7.55;;;4.03;;
83247;SDS011;73465;51.038;7.052;2024-01-30T11:29:35;10.13;;;3.85;;
83247;SDS011;73465;51.038;7.052;2024-01-30T11:32:00;9.77;;;3.88;;
83247;SDS011;73465;51.038;7.052;2024-01-30T11:34:26;8.23;;;4.30;;
83247;SDS011;73465;51.038;7.052;2024-01-30T11:36:52;9.30;;;4.18;;
83247;SDS011;73465;51.038;7.052;2024-01-30T11:39:25;9.82;;;3.90;;
83247;SDS011;73465;51.038;7.052;2024-01-30T11:41:51;10.85;;;3.95;;
83247;SDS011;73465;51.038;7.052;2024-01-30T11:44:18;6.45;;;3.75;;
83247;SDS011;73465;51.038;7.052;2024-01-30T11:46:47;11.98;;;4.32;;
83247;SDS011;73465;51.038;7.052;2024-01-30T11:49:13;8.60;;;3.92;;
83247;SDS011;73465;51.038;7.052;2024-01-30T11:51:39;10.23;;;4.20;;
83247;SDS011;73465;51.038;7.052;2024-01-30T11:54:04;8.23;;;3.78;;
83247;SDS011;73465;51.038;7.052;2024-01-30T11:56:29;9.27;;;4.03;;
83247;SDS011;73465;51.038;7.052;2024-01-30T11:58:55;9.05;;;4.60;;
83247;SDS011;73465;51.038;7.052;2024-01-30T12:01:20;7.82;;;3.92;;
83247;SDS011;73465;51.038;7.052;2024-01-30T12:03:49;9.52;;;3.40;;
83247;SDS011;73465;51.038;7.052;2024-01-30T12:06:15;7.68;;;3.72;;
83247;SDS011;73465;51.038;7.052;2024-01-30T12:08:41;7.35;;;3.90;;
83247;SDS011;73465;51.038;7.052;2024-01-30T12:11:06;7.97;;;3.85;;
83247;SDS011;73465;51.038;7.052;2024-01-30T12:13:32;8.23;;;4.10;;
83247;SDS011;73465;51.038;7.052;2024-01-30T12:15:57;5.40;;;3.20;;
83247;SDS011;73465;51.038;7.052;2024-01-30T12:18:23;10.68;;;3.53;;
83247;SDS011;73465;51.038;7.052;2024-01-30T12:21:01;7.22;;;3.60;;
83247;SDS011;73465;51.038;7.052;2024-01-30T12:23:26;10.43;;;5.00;;
83247;SDS011;73465;51.038;7.052;2024-01-30T12:25:53;9.25;;;4.25;;
83247;SDS011;73465;51.038;7.052;2024-01-30T12:28:19;7.57;;;3.80;;
83247;SDS011;73465;51.038;7.052;2024-01-30T12:30:45;7.35;;;3.90;;
83247;SDS011;73465;51.038;7.052;2024-01-30T12:33:15;11.43;;;4.10;;
83247;SDS011;73465;51.038;7.052;2024-01-30T12:35:47;9.98;;;3.92;;
83247;SDS011;73465;51.038;7.052;2024-01-30T12:38:14;8.30;;;3.85;;
83247;SDS011;73465;51.038;7.052;2024-01-30T12:40:39;7.55;;;3.65;;
83247;SDS011;73465;51.038;7.052;2024-01-30T12:43:05;7.00;;;3.60;;
83247;SDS011;73465;51.038;7.052;2024-01-30T12:45:31;8.00;;;4.45;;
83247;SDS011;73465;51.038;7.052;2024-01-30T12:47:56;8.35;;;4.30;;
83247;SDS011;73465;51.038;7.052;2024-01-30T12:50:23;8.40;;;4.20;;
83247;SDS011;73465;51.038;7.052;2024-01-30T12:52:48;12.85;;;4.90;;
83247;SDS011;73465;51.038;7.052;2024-01-30T12:55:14;7.72;;;3.90;;
83247;SDS011;73465;51.038;7.052;2024-01-30T12:57:40;8.48;;;4.30;;
83247;SDS011;73465;51.038;7.052;2024-01-30T13:00:06;9.20;;;4.55;;
83247;SDS011;73465;51.038;7.052;2024-01-30T13:02:33;9.48;;;4.15;;
83247;SDS011;73465;51.038;7.052;2024-01-30T13:05:02;10.52;;;4.15;;
83247;SDS011;73465;51.038;7.052;2024-01-30T13:07:30;12.20;;;4.53;;
83247;SDS011;73465;51.038;7.052;2024-01-30T13:09:56;12.55;;;4.72;;
83247;SDS011;73465;51.038;7.052;2024-01-30T13:12:27;12.32;;;4.75;;
83247;SDS011;73465;51.038;7.052;2024-01-30T13:14:53;9.07;;;4.88;;
83247;SDS011;73465;51.038;7.052;2024-01-30T13:17:18;14.32;;;4.45;;
83247;SDS011;73465;51.038;7.052;2024-01-30T13:19:44;12.20;;;5.05;;
83247;SDS011;73465;51.038;7.052;2024-01-30T13:22:09;8.93;;;5.10;;
83247;SDS011;73465;51.038;7.052;2024-01-30T13:24:34;11.05;;;5.30;;
83247;SDS011;73465;51.038;7.052;2024-01-30T13:27:00;11.88;;;4.95;;
83247;SDS011;73465;51.038;7.052;2024-01-30T13:29:25;11.48;;;4.70;;
83247;SDS011;73465;51.038;7.052;2024-01-30T13:31:51;15.15;;;5.47;;
83247;SDS011;73465;51.038;7.052;2024-01-30T13:34:16;11.93;;;5.47;;
83247;SDS011;73465;51.038;7.052;2024-01-30T13:36:42;12.68;;;5.45;;
83247;SDS011;73465;51.038;7.052;2024-01-30T13:39:08;12.13;;;5.60;;
83247;SDS011;73465;51.038;7.052;2024-01-30T13:41:36;9.45;;;5.68;;
83247;SDS011;73465;51.038;7.052;2024-01-30T13:44:02;11.18;;;5.70;;
83247;SDS011;73465;51.038;7.052;2024-01-30T13:46:28;12.85;;;5.20;;
83247;SDS011;73465;51.038;7.052;2024-01-30T13:48:54;12.48;;;5.50;;
83247;SDS011;73465;51.038;7.052;2024-01-30T13:51:20;12.10;;;5.70;;
83247;SDS011;73465;51.038;7.052;2024-01-30T13:53:45;21.30;;;6.68;;
83247;SDS011;73465;51.038;7.052;2024-01-30T13:56:10;17.95;;;6.90;;
83247;SDS011;73465;51.038;7.052;2024-01-30T13:58:36;13.50;;;6.32;;
83247;SDS011;73465;51.038;7.052;2024-01-30T14:01:01;16.98;;;6.50;;
83247;SDS011;73465;51.038;7.052;2024-01-30T14:03:27;10.45;;;5.93;;
83247;SDS011;73465;51.038;7.052;2024-01-30T14:05:52;13.82;;;6.15;;
83247;SDS011;73465;51.038;7.052;2024-01-30T14:08:18;10.80;;;5.60;;
83247;SDS011;73465;51.038;7.052;2024-01-30T14:10:46;10.18;;;4.93;;
83247;SDS011;73465;51.038;7.052;2024-01-30T14:13:12;11.70;;;5.53;;
83247;SDS011;73465;51.038;7.052;2024-01-30T14:15:37;11.13;;;5.00;;
83247;SDS011;73465;51.038;7.052;2024-01-30T14:18:03;11.15;;;5.50;;
83247;SDS011;73465;51.038;7.052;2024-01-30T14:20:28;13.73;;;5.85;;
83247;SDS011;73465;51.038;7.052;2024-01-30T14:22:53;16.85;;;5.97;;
83247;SDS011;73465;51.038;7.052;2024-01-30T14:25:20;13.60;;;6.50;;
83247;SDS011;73465;51.038;7.052;2024-01-30T14:27:46;18.05;;;5.95;;
83247;SDS011;73465;51.038;7.052;2024-01-30T14:30:12;13.65;;;6.55;;